createdAt,value
2019-05-19T00:01:00.910Z,14.74
2019-05-19T00:02:06.538Z,14.74
2019-05-19T00:03:10.966Z,14.66
2019-05-19T00:04:15.714Z,14.79
2019-05-19T00:05:20.598Z,14.71
2019-05-19T00:06:23.903Z,14.67
2019-05-19T00:07:29.928Z,14.69
2019-05-19T00:08:37.093Z,14.71
2019-05-19T00:09:44.020Z,14.61
2019-05-19T00:10:49.650Z,14.64
2019-05-19T00:11:55.616Z,14.67
2019-05-19T00:12:59.967Z,14.63
2019-05-19T00:14:01.359Z,14.60
2019-05-19T00:15:06.400Z,14.59
2019-05-19T00:16:10.640Z,14.63
2019-05-19T00:17:12.034Z,14.63
2019-05-19T00:18:14.832Z,14.54
2019-05-19T00:19:26.284Z,14.48
2019-05-19T00:20:17.573Z,14.54
2019-05-19T00:21:18.976Z,14.60
2019-05-19T00:22:20.361Z,14.54
2019-05-19T00:23:21.751Z,14.54
2019-05-19T00:24:23.145Z,14.56
2019-05-19T00:25:24.554Z,14.59
2019-05-19T00:26:25.941Z,14.39
2019-05-19T00:27:30.698Z,14.45
2019-05-19T00:28:33.304Z,14.46
2019-05-19T00:29:35.101Z,14.39
2019-05-19T00:30:40.422Z,14.41
2019-05-19T00:31:45.754Z,14.45
2019-05-19T00:32:49.558Z,14.45
2019-05-19T00:33:53.976Z,14.36
2019-05-19T00:34:55.970Z,14.39
2019-05-19T00:36:00.656Z,14.38
2019-05-19T00:37:04.929Z,14.31
2019-05-19T00:38:06.328Z,14.35
2019-05-19T00:39:08.897Z,14.29
2019-05-19T00:40:10.319Z,14.34
2019-05-19T00:41:16.838Z,14.36
2019-05-19T00:42:18.252Z,14.31
2019-05-19T00:43:28.269Z,14.26
2019-05-19T00:44:29.663Z,14.24
2019-05-19T00:45:34.733Z,14.24
2019-05-19T00:46:38.801Z,14.21
2019-05-19T00:47:42.357Z,14.31
2019-05-19T00:48:45.594Z,14.26
2019-05-19T00:49:46.993Z,14.12
2019-05-19T00:50:48.399Z,14.20
2019-05-19T00:51:54.780Z,14.23
2019-05-19T00:53:01.427Z,14.23
2019-05-19T00:54:02.821Z,14.19
2019-05-19T00:55:04.225Z,14.26
2019-05-19T00:56:06.856Z,14.20
2019-05-19T00:57:08.263Z,14.19
2019-05-19T00:58:10.020Z,14.21
2019-05-19T00:59:13.035Z,14.11
2019-05-19T01:00:17.871Z,14.05
2019-05-19T01:01:23.620Z,14.06
2019-05-19T01:02:25.917Z,14.06
2019-05-19T01:03:30.369Z,14.02
2019-05-19T01:04:31.761Z,14.02
2019-05-19T01:05:33.156Z,13.98
2019-05-19T01:06:34.569Z,13.98
2019-05-19T01:07:41.592Z,14.02
2019-05-19T01:08:43.041Z,13.96
2019-05-19T01:09:44.451Z,13.94
2019-05-19T01:10:45.836Z,14.02
2019-05-19T01:11:51.714Z,13.94
2019-05-19T01:12:53.112Z,13.93
2019-05-19T01:13:57.549Z,13.98
2019-05-19T01:15:03.647Z,13.99
2019-05-19T01:16:05.035Z,14.05
2019-05-19T01:17:06.427Z,13.91
2019-05-19T01:18:08.666Z,13.98
2019-05-19T01:19:10.080Z,13.98
2019-05-19T01:20:16.433Z,13.99
2019-05-19T01:21:19.973Z,13.88
2019-05-19T01:22:21.378Z,13.81
2019-05-19T01:23:22.763Z,13.84
2019-05-19T01:24:25.337Z,13.91
2019-05-19T01:25:30.061Z,13.88
2019-05-19T01:26:33.186Z,13.84
2019-05-19T01:27:39.538Z,13.84
2019-05-19T01:28:47.404Z,13.86
2019-05-19T01:29:52.053Z,13.86
2019-05-19T01:30:53.462Z,13.86
2019-05-19T01:31:54.860Z,13.90
2019-05-19T01:32:59.546Z,13.83
2019-05-19T01:34:01.873Z,13.94
2019-05-19T01:35:06.727Z,13.86
2019-05-19T01:36:11.295Z,13.83
2019-05-19T01:37:15.188Z,13.94
2019-05-19T01:38:19.086Z,13.86
2019-05-19T01:39:23.643Z,13.84
2019-05-19T01:40:26.110Z,13.81
2019-05-19T01:41:35.384Z,13.83
2019-05-19T01:42:41.119Z,13.84
2019-05-19T01:43:42.516Z,13.81
2019-05-19T01:44:45.115Z,13.88
2019-05-19T01:45:46.510Z,13.86
2019-05-19T01:46:47.940Z,13.76
2019-05-19T01:47:52.120Z,13.76
2019-05-19T01:48:53.515Z,13.66
2019-05-19T01:49:54.905Z,13.71
2019-05-19T01:50:56.291Z,13.63
2019-05-19T01:51:57.687Z,13.68
2019-05-19T01:52:59.091Z,13.63
2019-05-19T01:54:00.483Z,13.71
2019-05-19T01:55:04.138Z,13.63
2019-05-19T01:56:05.532Z,13.68
2019-05-19T01:57:10.644Z,13.68
2019-05-19T01:58:12.030Z,13.65
2019-05-19T01:59:13.430Z,13.62
2019-05-19T02:00:14.821Z,13.69
2019-05-19T02:01:16.221Z,13.69
2019-05-19T02:02:17.615Z,13.63
2019-05-19T02:03:19.033Z,13.61
2019-05-19T02:04:20.449Z,13.63
2019-05-19T02:05:21.876Z,13.65
2019-05-19T02:06:23.256Z,13.57
2019-05-19T02:07:24.678Z,13.57
2019-05-19T02:08:26.074Z,13.54
2019-05-19T02:09:27.484Z,13.51
2019-05-19T02:10:28.879Z,13.51
2019-05-19T02:11:30.303Z,13.50
2019-05-19T02:12:31.694Z,13.50
2019-05-19T02:13:33.101Z,13.59
2019-05-19T02:14:34.509Z,13.51
2019-05-19T02:15:35.904Z,13.53
2019-05-19T02:16:37.309Z,13.57
2019-05-19T02:17:38.697Z,13.51
2019-05-19T02:18:40.098Z,13.51
2019-05-19T02:19:41.490Z,13.61
2019-05-19T02:20:42.881Z,13.54
2019-05-19T02:21:44.287Z,13.63
2019-05-19T02:22:45.680Z,13.57
2019-05-19T02:23:47.077Z,13.48
2019-05-19T02:24:48.488Z,13.55
2019-05-19T02:25:49.890Z,13.51
2019-05-19T02:26:51.273Z,13.50
2019-05-19T02:27:52.693Z,13.53
2019-05-19T02:28:54.088Z,13.51
2019-05-19T02:29:55.486Z,13.48
2019-05-19T02:30:56.897Z,13.51
2019-05-19T02:31:58.305Z,13.51
2019-05-19T02:32:59.702Z,13.47
2019-05-19T02:34:01.120Z,13.43
2019-05-19T02:35:02.501Z,13.46
2019-05-19T02:36:03.901Z,13.41
2019-05-19T02:37:05.303Z,13.43
2019-05-19T02:38:06.704Z,13.46
2019-05-19T02:39:08.113Z,13.43
2019-05-19T02:40:09.500Z,13.41
2019-05-19T02:41:10.891Z,13.32
2019-05-19T02:42:12.309Z,13.43
2019-05-19T02:43:13.695Z,13.35
2019-05-19T02:44:15.087Z,13.38
2019-05-19T02:45:16.512Z,13.35
2019-05-19T02:46:17.907Z,13.31
2019-05-19T02:47:19.305Z,13.32
2019-05-19T02:48:20.710Z,13.36
2019-05-19T02:49:22.116Z,13.48
2019-05-19T02:50:23.519Z,13.38
2019-05-19T02:51:24.954Z,13.35
2019-05-19T02:52:26.323Z,13.50
2019-05-19T02:53:27.761Z,13.32
2019-05-19T02:54:29.157Z,13.39
2019-05-19T02:55:30.546Z,13.38
2019-05-19T02:56:31.951Z,13.38
2019-05-19T02:57:33.358Z,13.27
2019-05-19T02:58:34.768Z,13.36
2019-05-19T02:59:36.162Z,13.32
2019-05-19T03:00:37.564Z,13.38
2019-05-19T03:01:38.980Z,13.39
2019-05-19T03:02:40.391Z,13.32
2019-05-19T03:03:41.803Z,13.31
2019-05-19T03:04:43.194Z,13.35
2019-05-19T03:05:44.603Z,13.36
2019-05-19T03:06:45.985Z,13.39
2019-05-19T03:07:47.396Z,13.38
2019-05-19T03:08:48.806Z,13.35
2019-05-19T03:09:50.213Z,13.38
2019-05-19T03:10:51.615Z,13.31
2019-05-19T03:11:53.015Z,13.38
2019-05-19T03:12:54.416Z,13.38
2019-05-19T03:13:55.824Z,13.39
2019-05-19T03:14:57.204Z,13.24
2019-05-19T03:15:58.604Z,13.31
2019-05-19T03:17:00.007Z,13.39
2019-05-19T03:18:01.406Z,13.32
2019-05-19T03:19:02.800Z,13.29
2019-05-19T03:20:04.189Z,13.39
2019-05-19T03:21:10.797Z,13.32
2019-05-19T03:22:06.989Z,13.31
2019-05-19T03:23:08.361Z,13.35
2019-05-19T03:24:09.753Z,13.39
2019-05-19T03:25:11.175Z,13.35
2019-05-19T03:26:12.567Z,13.31
2019-05-19T03:27:13.954Z,13.29
2019-05-19T03:28:15.364Z,13.32
2019-05-19T03:29:16.754Z,13.35
2019-05-19T03:30:18.159Z,13.36
2019-05-19T03:31:19.581Z,13.29
2019-05-19T03:32:20.955Z,13.32
2019-05-19T03:33:22.387Z,13.38
2019-05-19T03:34:23.721Z,13.47
2019-05-19T03:35:25.114Z,13.41
2019-05-19T03:36:26.527Z,13.29
2019-05-19T03:37:27.930Z,13.46
2019-05-19T03:38:29.347Z,13.47
2019-05-19T03:39:30.754Z,13.38
2019-05-19T03:40:32.146Z,13.48
2019-05-19T03:41:33.535Z,13.44
2019-05-19T03:42:34.933Z,13.48
2019-05-19T03:43:36.335Z,13.50
2019-05-19T03:44:37.739Z,13.51
2019-05-19T03:45:39.135Z,13.51
2019-05-19T03:46:40.527Z,13.59
2019-05-19T03:47:41.919Z,13.66
2019-05-19T03:48:43.321Z,13.59
2019-05-19T03:49:44.720Z,13.79
2019-05-19T03:50:46.131Z,13.81
2019-05-19T03:51:47.514Z,13.88
2019-05-19T03:52:48.922Z,13.96
2019-05-19T03:53:50.333Z,13.98
2019-05-19T03:54:51.726Z,14.02
2019-05-19T03:55:53.127Z,14.06
2019-05-19T03:56:54.513Z,14.08
2019-05-19T03:57:55.912Z,14.17
2019-05-19T03:58:57.311Z,14.31
2019-05-19T03:59:58.704Z,14.36
2019-05-19T04:01:00.113Z,14.41
2019-05-19T04:02:01.516Z,14.41
2019-05-19T04:03:02.918Z,14.42
2019-05-19T04:04:04.315Z,14.57
2019-05-19T04:05:05.723Z,14.54
2019-05-19T04:06:07.131Z,14.66
2019-05-19T04:07:08.525Z,14.69
2019-05-19T04:08:09.921Z,14.72
2019-05-19T04:09:11.327Z,14.78
2019-05-19T04:10:12.749Z,14.86
2019-05-19T04:11:14.087Z,14.93
2019-05-19T04:12:15.482Z,14.85
2019-05-19T04:13:16.882Z,14.97
2019-05-19T04:14:18.267Z,15.03
2019-05-19T04:15:19.630Z,15.05
2019-05-19T04:16:21.025Z,15.07
2019-05-19T04:17:22.454Z,15.15
2019-05-19T04:18:23.846Z,15.19
2019-05-19T04:19:25.257Z,15.19
2019-05-19T04:20:26.643Z,15.28
2019-05-19T04:21:28.034Z,15.28
2019-05-19T04:22:29.450Z,15.33
2019-05-19T04:23:30.866Z,15.34
2019-05-19T04:24:32.317Z,15.41
2019-05-19T04:25:33.704Z,15.46
2019-05-19T04:26:35.108Z,15.49
2019-05-19T04:27:36.501Z,15.62
2019-05-19T04:28:37.902Z,15.67
2019-05-19T04:29:39.602Z,15.76
2019-05-19T04:30:40.662Z,15.81
2019-05-19T04:31:42.059Z,15.86
2019-05-19T04:32:43.459Z,15.85
2019-05-19T04:33:44.865Z,15.93
2019-05-19T04:34:46.253Z,15.89
2019-05-19T04:35:47.660Z,16.07
2019-05-19T04:36:49.060Z,16.01
2019-05-19T04:37:50.467Z,16.17
2019-05-19T04:38:51.864Z,16.16
2019-05-19T04:39:53.270Z,16.18
2019-05-19T04:40:54.674Z,16.29
2019-05-19T04:41:56.090Z,16.30
2019-05-19T04:42:57.478Z,16.30
2019-05-19T04:43:58.878Z,16.40
2019-05-19T04:45:00.287Z,16.44
2019-05-19T04:46:01.694Z,16.55
2019-05-19T04:47:03.099Z,16.52
2019-05-19T04:48:05.593Z,16.57
2019-05-19T04:49:05.878Z,16.69
2019-05-19T04:50:07.295Z,16.81
2019-05-19T04:51:08.692Z,16.84
2019-05-19T04:52:10.157Z,16.92
2019-05-19T04:53:11.604Z,16.96
2019-05-19T04:54:13.006Z,16.98
2019-05-19T04:55:14.408Z,17.02
2019-05-19T04:56:19.366Z,17.02
2019-05-19T04:57:17.182Z,16.99
2019-05-19T04:58:18.583Z,17.00
2019-05-19T04:59:19.980Z,17.10
2019-05-19T05:00:21.386Z,17.10
2019-05-19T05:01:22.787Z,17.20
2019-05-19T05:02:24.201Z,17.15
2019-05-19T05:03:25.595Z,17.24
2019-05-19T05:04:29.317Z,17.36
2019-05-19T05:05:28.359Z,17.35
2019-05-19T05:06:29.761Z,17.40
2019-05-19T05:07:31.171Z,17.46
2019-05-19T05:08:32.577Z,17.57
2019-05-19T05:09:33.984Z,17.49
2019-05-19T05:10:35.401Z,17.73
2019-05-19T05:11:36.807Z,17.65
2019-05-19T05:12:38.193Z,17.77
2019-05-19T05:13:39.615Z,17.86
2019-05-19T05:14:41.011Z,17.95
2019-05-19T05:15:42.439Z,18.01
2019-05-19T05:16:45.392Z,18.02
2019-05-19T05:17:46.812Z,18.13
2019-05-19T05:18:48.218Z,18.10
2019-05-19T05:19:49.642Z,18.10
2019-05-19T05:20:51.055Z,18.13
2019-05-19T05:21:52.449Z,18.11
2019-05-19T05:22:53.866Z,18.14
2019-05-19T05:23:55.269Z,18.13
2019-05-19T05:24:56.684Z,18.16
2019-05-19T05:25:58.086Z,18.14
2019-05-19T05:26:59.490Z,18.13
2019-05-19T05:28:00.892Z,18.19
2019-05-19T05:29:02.315Z,18.16
2019-05-19T05:30:03.710Z,18.20
2019-05-19T05:31:05.128Z,18.23
2019-05-19T05:32:06.526Z,18.20
2019-05-19T05:33:07.952Z,18.21
2019-05-19T05:34:09.344Z,18.17
2019-05-19T05:35:10.763Z,18.20
2019-05-19T05:36:12.157Z,18.26
2019-05-19T05:37:13.556Z,18.44
2019-05-19T05:38:14.971Z,18.36
2019-05-19T05:39:16.373Z,18.47
2019-05-19T05:40:17.779Z,18.50
2019-05-19T05:41:19.185Z,18.60
2019-05-19T05:42:20.599Z,18.56
2019-05-19T05:43:22.004Z,18.62
2019-05-19T05:44:23.418Z,18.66
2019-05-19T05:45:24.825Z,18.69
2019-05-19T05:46:26.228Z,18.64
2019-05-19T05:47:27.630Z,18.78
2019-05-19T05:48:29.038Z,18.78
2019-05-19T05:49:30.444Z,18.90
2019-05-19T05:50:31.852Z,18.91
2019-05-19T05:51:33.256Z,19.07
2019-05-19T05:52:38.612Z,19.06
2019-05-19T05:53:36.042Z,19.07
2019-05-19T05:54:37.443Z,19.09
2019-05-19T05:55:38.835Z,19.23
2019-05-19T05:56:40.246Z,19.09
2019-05-19T05:57:41.660Z,19.23
2019-05-19T05:58:43.060Z,19.25
2019-05-19T05:59:44.459Z,19.28
2019-05-19T06:00:45.873Z,19.27
2019-05-19T06:01:47.296Z,19.46
2019-05-19T06:02:48.697Z,19.53
2019-05-19T06:03:50.098Z,19.53
2019-05-19T06:04:51.507Z,19.57
2019-05-19T06:05:52.926Z,19.62
2019-05-19T06:06:54.331Z,19.68
2019-05-19T06:07:55.733Z,19.62
2019-05-19T06:08:57.140Z,19.75
2019-05-19T06:09:58.555Z,19.78
2019-05-19T06:10:59.959Z,19.82
2019-05-19T06:12:01.363Z,19.90
2019-05-19T06:13:02.766Z,19.98
2019-05-19T06:14:04.173Z,20.07
2019-05-19T06:15:05.580Z,20.17
2019-05-19T06:16:06.986Z,20.25
2019-05-19T06:17:08.392Z,20.34
2019-05-19T06:18:09.806Z,20.38
2019-05-19T06:19:11.216Z,20.56
2019-05-19T06:20:12.627Z,20.58
2019-05-19T06:21:14.024Z,20.72
2019-05-19T06:22:15.445Z,20.91
2019-05-19T06:23:16.848Z,21.05
2019-05-19T06:24:18.256Z,21.19
2019-05-19T06:25:19.736Z,21.21
2019-05-19T06:26:21.135Z,21.24
2019-05-19T06:27:22.557Z,21.36
2019-05-19T06:28:23.969Z,21.40
2019-05-19T06:29:25.391Z,21.40
2019-05-19T06:30:26.799Z,21.51
2019-05-19T06:31:28.220Z,21.63
2019-05-19T06:32:29.627Z,21.70
2019-05-19T06:33:31.020Z,21.73
2019-05-19T06:34:32.445Z,21.90
2019-05-19T06:35:33.839Z,21.96
2019-05-19T06:36:35.243Z,21.93
2019-05-19T06:37:36.649Z,22.09
2019-05-19T06:38:38.055Z,22.09
2019-05-19T06:39:39.473Z,22.26
2019-05-19T06:40:40.876Z,22.29
2019-05-19T06:41:42.278Z,22.27
2019-05-19T06:42:43.707Z,22.35
2019-05-19T06:43:45.104Z,22.44
2019-05-19T06:44:46.524Z,22.72
2019-05-19T06:45:47.932Z,22.82
2019-05-19T06:46:49.335Z,22.96
2019-05-19T06:47:50.748Z,22.96
2019-05-19T06:48:52.170Z,22.93
2019-05-19T06:49:54.454Z,22.89
2019-05-19T06:50:55.866Z,23.00
2019-05-19T06:51:57.290Z,23.01
2019-05-19T06:53:12.872Z,23.11
2019-05-19T06:54:00.056Z,23.12
2019-05-19T06:55:01.487Z,23.16
2019-05-19T06:56:02.919Z,23.23
2019-05-19T06:57:04.322Z,23.12
2019-05-19T06:58:05.741Z,23.21
2019-05-19T06:59:07.161Z,23.19
2019-05-19T07:00:08.589Z,23.19
2019-05-19T07:01:09.997Z,23.21
2019-05-19T07:02:11.397Z,23.21
2019-05-19T07:03:12.801Z,23.29
2019-05-19T07:04:14.211Z,23.59
2019-05-19T07:05:15.621Z,23.74
2019-05-19T07:06:17.029Z,23.92
2019-05-19T07:07:18.435Z,23.82
2019-05-19T07:08:19.845Z,23.92
2019-05-19T07:09:21.272Z,24.00
2019-05-19T07:10:22.678Z,24.06
2019-05-19T07:11:24.115Z,24.05
2019-05-19T07:12:25.522Z,24.12
2019-05-19T07:13:26.980Z,24.29
2019-05-19T07:14:28.419Z,24.31
2019-05-19T07:15:29.836Z,24.45
2019-05-19T07:16:31.254Z,24.55
2019-05-19T07:17:32.682Z,24.52
2019-05-19T07:18:34.081Z,24.52
2019-05-19T07:19:35.491Z,24.52
2019-05-19T07:20:36.895Z,24.52
2019-05-19T07:21:38.316Z,24.63
2019-05-19T07:22:39.726Z,24.61
2019-05-19T07:23:41.136Z,24.84
2019-05-19T07:24:42.547Z,24.83
2019-05-19T07:25:43.983Z,24.74
2019-05-19T07:26:45.393Z,24.75
2019-05-19T07:27:46.807Z,24.67
2019-05-19T07:28:48.231Z,24.68
2019-05-19T07:29:49.624Z,24.75
2019-05-19T07:30:51.043Z,24.80
2019-05-19T07:31:52.471Z,24.84
2019-05-19T07:32:53.872Z,24.93
2019-05-19T07:33:55.278Z,24.97
2019-05-19T07:34:56.686Z,24.97
2019-05-19T07:35:58.097Z,25.05
2019-05-19T07:36:59.515Z,25.12
2019-05-19T07:38:00.920Z,25.23
2019-05-19T07:39:02.321Z,25.30
2019-05-19T07:40:03.749Z,25.38
2019-05-19T07:41:05.161Z,25.44
2019-05-19T07:42:06.562Z,25.44
2019-05-19T07:43:07.978Z,25.54
2019-05-19T07:44:09.378Z,25.57
2019-05-19T07:45:10.788Z,25.71
2019-05-19T07:46:12.204Z,25.71
2019-05-19T07:47:13.611Z,25.71
2019-05-19T07:48:15.376Z,25.69
2019-05-19T07:49:16.774Z,25.83
2019-05-19T07:50:18.189Z,25.83
2019-05-19T07:51:19.615Z,25.96
2019-05-19T07:52:21.034Z,25.90
2019-05-19T07:53:22.442Z,25.91
2019-05-19T07:54:23.850Z,25.82
2019-05-19T07:55:25.267Z,25.90
2019-05-19T07:56:26.679Z,26.00
2019-05-19T07:57:28.086Z,26.13
2019-05-19T07:58:29.494Z,26.19
2019-05-19T07:59:30.902Z,26.09
2019-05-19T08:00:32.306Z,26.21
2019-05-19T08:01:33.845Z,26.21
2019-05-19T08:02:35.262Z,26.24
2019-05-19T08:03:36.662Z,26.20
2019-05-19T08:04:38.079Z,26.24
2019-05-19T08:05:39.493Z,26.28
2019-05-19T08:06:40.912Z,26.27
2019-05-19T08:07:43.055Z,26.38
2019-05-19T08:08:44.452Z,26.27
2019-05-19T08:09:45.870Z,26.28
2019-05-19T08:10:47.300Z,26.16
2019-05-19T08:11:48.711Z,26.09
2019-05-19T08:12:50.119Z,26.19
2019-05-19T08:13:51.544Z,26.21
2019-05-19T08:14:52.946Z,26.34
2019-05-19T08:15:54.372Z,26.36
2019-05-19T08:16:55.798Z,26.41
2019-05-19T08:17:57.214Z,26.28
2019-05-19T08:18:58.648Z,26.16
2019-05-19T08:20:00.085Z,25.94
2019-05-19T08:21:01.511Z,25.81
2019-05-19T08:22:02.936Z,25.81
2019-05-19T08:23:04.347Z,25.72
2019-05-19T08:24:05.809Z,25.69
2019-05-19T08:25:07.189Z,25.93
2019-05-19T08:26:08.609Z,25.96
2019-05-19T08:27:10.065Z,25.94
2019-05-19T08:28:11.510Z,26.04
2019-05-19T08:29:12.961Z,26.03
2019-05-19T08:30:14.381Z,26.08
2019-05-19T08:31:15.799Z,25.96
2019-05-19T08:32:17.203Z,25.96
2019-05-19T08:33:18.654Z,25.67
2019-05-19T08:34:20.066Z,25.67
2019-05-19T08:35:21.475Z,25.66
2019-05-19T08:36:22.874Z,25.75
2019-05-19T08:37:24.294Z,25.83
2019-05-19T08:38:25.718Z,25.91
2019-05-19T08:39:27.126Z,25.79
2019-05-19T08:40:28.573Z,25.69
2019-05-19T08:41:29.974Z,25.75
2019-05-19T08:42:31.374Z,25.63
2019-05-19T08:43:32.785Z,25.41
2019-05-19T08:44:34.189Z,25.36
2019-05-19T08:45:35.607Z,25.38
2019-05-19T08:46:37.027Z,25.29
2019-05-19T08:47:38.430Z,25.30
2019-05-19T08:48:39.853Z,25.27
2019-05-19T08:49:41.258Z,25.19
2019-05-19T08:50:42.677Z,25.07
2019-05-19T08:51:44.076Z,25.08
2019-05-19T08:52:45.494Z,25.24
2019-05-19T08:53:46.888Z,25.34
2019-05-19T08:54:48.315Z,25.35
2019-05-19T08:55:49.753Z,25.59
2019-05-19T08:56:51.262Z,25.79
2019-05-19T08:57:52.677Z,25.81
2019-05-19T08:58:54.086Z,25.79
2019-05-19T08:59:55.497Z,25.91
2019-05-19T09:00:56.922Z,25.83
2019-05-19T09:01:58.355Z,26.00
2019-05-19T09:02:59.771Z,26.08
2019-05-19T09:04:01.182Z,26.27
2019-05-19T09:05:02.588Z,26.29
2019-05-19T09:06:04.011Z,26.29
2019-05-19T09:07:05.419Z,26.21
2019-05-19T09:08:06.861Z,25.85
2019-05-19T09:09:08.306Z,25.67
2019-05-19T09:10:09.716Z,25.60
2019-05-19T09:11:11.148Z,25.59
2019-05-19T09:12:12.561Z,25.48
2019-05-19T09:13:13.990Z,25.44
2019-05-19T09:14:15.440Z,25.34
2019-05-19T09:15:16.862Z,25.41
2019-05-19T09:16:18.290Z,25.41
2019-05-19T09:17:19.688Z,25.41
2019-05-19T09:18:21.108Z,25.54
2019-05-19T09:19:22.507Z,25.75
2019-05-19T09:20:23.918Z,25.81
2019-05-19T09:21:25.339Z,25.79
2019-05-19T09:22:26.752Z,25.71
2019-05-19T09:23:28.213Z,25.83
2019-05-19T09:24:31.006Z,25.89
2019-05-19T09:25:30.999Z,25.82
2019-05-19T09:26:32.413Z,25.86
2019-05-19T09:27:33.849Z,25.69
2019-05-19T09:28:35.261Z,25.46
2019-05-19T09:29:36.680Z,25.44
2019-05-19T09:30:39.261Z,25.31
2019-05-19T09:31:41.516Z,25.46
2019-05-19T09:32:42.053Z,25.46
2019-05-19T09:33:43.475Z,25.71
2019-05-19T09:34:44.891Z,25.83
2019-05-19T09:35:46.293Z,25.79
2019-05-19T09:36:47.694Z,25.79
2019-05-19T09:37:49.094Z,25.94
2019-05-19T09:38:50.487Z,26.20
2019-05-19T09:39:51.915Z,26.29
2019-05-19T09:40:53.324Z,26.46
2019-05-19T09:41:54.745Z,26.56
2019-05-19T09:42:56.168Z,26.71
2019-05-19T09:43:57.568Z,26.72
2019-05-19T09:44:58.976Z,26.60
2019-05-19T09:46:00.385Z,26.71
2019-05-19T09:47:01.786Z,26.64
2019-05-19T09:48:03.196Z,26.90
2019-05-19T09:49:04.606Z,27.08
2019-05-19T09:50:06.018Z,27.38
2019-05-19T09:51:07.420Z,27.43
2019-05-19T09:52:08.837Z,27.46
2019-05-19T09:53:10.245Z,27.68
2019-05-19T09:54:11.682Z,27.59
2019-05-19T09:55:13.067Z,27.40
2019-05-19T09:56:14.489Z,27.21
2019-05-19T09:57:15.897Z,26.94
2019-05-19T09:58:19.911Z,26.98
2019-05-19T09:59:18.681Z,26.88
2019-05-19T10:00:20.111Z,26.79
2019-05-19T10:01:21.518Z,26.75
2019-05-19T10:02:22.936Z,26.79
2019-05-19T10:03:24.350Z,26.87
2019-05-19T10:04:25.759Z,26.97
2019-05-19T10:05:27.171Z,27.11
2019-05-19T10:06:28.586Z,27.15
2019-05-19T10:07:29.993Z,26.98
2019-05-19T10:08:31.394Z,26.88
2019-05-19T10:09:32.816Z,26.93
2019-05-19T10:10:34.221Z,26.68
2019-05-19T10:11:35.660Z,26.78
2019-05-19T10:12:37.072Z,26.98
2019-05-19T10:13:38.491Z,27.05
2019-05-19T10:14:39.898Z,27.27
2019-05-19T10:15:41.311Z,27.43
2019-05-19T10:16:42.722Z,27.27
2019-05-19T10:17:44.147Z,27.27
2019-05-19T10:18:45.559Z,27.03
2019-05-19T10:19:46.989Z,27.06
2019-05-19T10:20:50.400Z,26.83
2019-05-19T10:21:49.773Z,26.78
2019-05-19T10:22:51.176Z,26.65
2019-05-19T10:23:52.595Z,26.49
2019-05-19T10:25:10.490Z,26.60
2019-05-19T10:25:55.404Z,26.61
2019-05-19T10:26:56.807Z,26.78
2019-05-19T10:27:58.301Z,26.84
2019-05-19T10:28:59.588Z,27.02
2019-05-19T10:30:01.023Z,27.06
2019-05-19T10:31:02.438Z,27.24
2019-05-19T10:32:03.852Z,27.25
2019-05-19T10:33:05.271Z,27.28
2019-05-19T10:34:06.689Z,27.46
2019-05-19T10:35:08.092Z,27.59
2019-05-19T10:36:09.524Z,27.59
2019-05-19T10:37:10.957Z,27.52
2019-05-19T10:38:12.368Z,27.33
2019-05-19T10:39:13.818Z,27.25
2019-05-19T10:40:15.190Z,27.03
2019-05-19T10:41:16.598Z,27.15
2019-05-19T10:42:18.003Z,26.87
2019-05-19T10:43:19.410Z,26.86
2019-05-19T10:44:20.820Z,27.03
2019-05-19T10:45:22.228Z,27.15
2019-05-19T10:46:23.642Z,27.06
2019-05-19T10:47:25.056Z,27.24
2019-05-19T10:48:26.467Z,27.23
2019-05-19T10:49:27.885Z,27.12
2019-05-19T10:50:29.297Z,27.18
2019-05-19T10:51:30.703Z,27.12
2019-05-19T10:52:32.135Z,27.25
2019-05-19T10:53:33.540Z,27.34
2019-05-19T10:54:34.958Z,27.27
2019-05-19T10:55:37.025Z,27.39
2019-05-19T10:56:37.770Z,27.05
2019-05-19T10:57:39.191Z,27.15
2019-05-19T10:58:40.590Z,27.25
2019-05-19T10:59:42.013Z,27.16
2019-05-19T11:00:43.438Z,26.98
2019-05-19T11:01:44.855Z,26.90
2019-05-19T11:02:46.265Z,26.84
2019-05-19T11:03:47.670Z,26.90
2019-05-19T11:04:49.106Z,26.87
2019-05-19T11:05:50.515Z,26.79
2019-05-19T11:06:51.927Z,26.97
2019-05-19T11:07:53.339Z,27.03
2019-05-19T11:08:54.754Z,27.13
2019-05-19T11:09:56.172Z,27.02
2019-05-19T11:10:57.621Z,27.05
2019-05-19T11:11:59.025Z,26.91
2019-05-19T11:13:00.430Z,26.83
2019-05-19T11:14:01.844Z,26.79
2019-05-19T11:15:03.249Z,26.72
2019-05-19T11:16:04.659Z,26.68
2019-05-19T11:17:06.075Z,26.68
2019-05-19T11:18:07.501Z,26.47
2019-05-19T11:19:08.918Z,26.41
2019-05-19T11:20:10.330Z,26.44
2019-05-19T11:21:11.743Z,26.46
2019-05-19T11:22:13.157Z,26.38
2019-05-19T11:23:14.568Z,26.36
2019-05-19T11:24:15.969Z,26.19
2019-05-19T11:25:31.600Z,25.98
2019-05-19T11:26:18.759Z,25.96
2019-05-19T11:27:20.167Z,25.91
2019-05-19T11:28:21.616Z,25.85
2019-05-19T11:29:23.013Z,25.83
2019-05-19T11:30:24.428Z,25.79
2019-05-19T11:31:25.842Z,25.64
2019-05-19T11:32:27.270Z,25.46
2019-05-19T11:33:28.715Z,25.31
2019-05-19T11:34:30.144Z,25.16
2019-05-19T11:35:31.557Z,25.04
2019-05-19T11:36:32.986Z,25.01
2019-05-19T11:37:34.399Z,24.99
2019-05-19T11:38:35.812Z,24.94
2019-05-19T11:39:37.255Z,24.89
2019-05-19T11:40:38.665Z,24.87
2019-05-19T11:41:40.078Z,24.77
2019-05-19T11:42:41.485Z,24.60
2019-05-19T11:43:42.900Z,24.68
2019-05-19T11:44:44.309Z,24.59
2019-05-19T11:45:45.756Z,24.63
2019-05-19T11:46:47.141Z,24.60
2019-05-19T11:47:48.550Z,24.55
2019-05-19T11:48:49.957Z,24.46
2019-05-19T11:49:51.450Z,24.51
2019-05-19T11:50:52.753Z,24.37
2019-05-19T11:51:54.155Z,24.30
2019-05-19T11:52:55.569Z,24.41
2019-05-19T11:53:56.971Z,24.31
2019-05-19T11:54:58.397Z,24.39
2019-05-19T11:56:06.531Z,24.31
2019-05-19T11:57:01.277Z,24.30
2019-05-19T11:58:02.682Z,24.27
2019-05-19T11:59:04.088Z,24.30
2019-05-19T12:00:05.581Z,24.33
2019-05-19T12:01:06.994Z,24.41
2019-05-19T12:02:08.452Z,24.44
2019-05-19T12:03:09.862Z,24.42
2019-05-19T12:04:11.266Z,24.42
2019-05-19T12:05:12.670Z,24.46
2019-05-19T12:06:14.071Z,24.34
2019-05-19T12:07:15.525Z,24.33
2019-05-19T12:08:16.922Z,24.27
2019-05-19T12:09:18.336Z,24.33
2019-05-19T12:10:19.781Z,24.21
2019-05-19T12:11:21.183Z,24.29
2019-05-19T12:12:22.600Z,24.37
2019-05-19T12:13:24.075Z,24.24
2019-05-19T12:14:25.475Z,24.27
2019-05-19T12:15:26.890Z,24.21
2019-05-19T12:16:28.291Z,24.24
2019-05-19T12:17:29.706Z,24.24
2019-05-19T12:18:31.107Z,24.24
2019-05-19T12:19:32.513Z,24.24
2019-05-19T12:20:33.926Z,24.19
2019-05-19T12:21:35.329Z,24.27
2019-05-19T12:22:36.744Z,24.27
2019-05-19T12:23:38.240Z,24.30
2019-05-19T12:24:39.679Z,24.27
2019-05-19T12:25:41.100Z,24.29
2019-05-19T12:26:42.525Z,24.23
2019-05-19T12:27:43.943Z,24.27
2019-05-19T12:28:45.357Z,24.26
2019-05-19T12:29:46.773Z,24.30
2019-05-19T12:30:48.178Z,24.27
2019-05-19T12:31:49.589Z,24.29
2019-05-19T12:32:51.020Z,24.41
2019-05-19T12:33:52.542Z,24.37
2019-05-19T12:34:53.791Z,24.49
2019-05-19T12:35:55.227Z,24.53
2019-05-19T12:36:56.681Z,24.53
2019-05-19T12:37:58.073Z,24.60
2019-05-19T12:38:59.513Z,24.45
2019-05-19T12:40:00.917Z,24.41
2019-05-19T12:41:02.350Z,24.27
2019-05-19T12:42:03.778Z,24.29
2019-05-19T12:43:05.213Z,24.37
2019-05-19T12:44:06.668Z,24.37
2019-05-19T12:45:08.080Z,24.42
2019-05-19T12:46:16.038Z,24.36
2019-05-19T12:47:10.974Z,24.39
2019-05-19T12:48:12.402Z,24.49
2019-05-19T12:49:13.811Z,24.53
2019-05-19T12:50:15.238Z,24.53
2019-05-19T12:51:16.633Z,24.64
2019-05-19T12:52:18.064Z,24.75
2019-05-19T12:53:19.440Z,24.61
2019-05-19T12:54:20.856Z,24.49
2019-05-19T12:55:22.286Z,24.52
2019-05-19T12:56:37.173Z,24.53
2019-05-19T12:57:25.074Z,24.61
2019-05-19T12:58:26.521Z,24.70
2019-05-19T12:59:27.920Z,24.83
2019-05-19T13:00:29.354Z,24.82
2019-05-19T13:01:30.778Z,24.80
2019-05-19T13:02:32.213Z,24.87
2019-05-19T13:03:33.664Z,24.90
2019-05-19T13:04:35.044Z,24.89
2019-05-19T13:05:36.455Z,24.83
2019-05-19T13:06:37.858Z,24.87
2019-05-19T13:07:39.250Z,24.90
2019-05-19T13:08:40.665Z,24.87
2019-05-19T13:09:42.083Z,24.90
2019-05-19T13:10:43.483Z,24.94
2019-05-19T13:11:44.885Z,25.02
2019-05-19T13:12:46.325Z,25.14
2019-05-19T13:13:47.728Z,25.24
2019-05-19T13:14:49.147Z,25.24